createdAt,value
2019-05-06T00:02:39.256Z,15.95
2019-05-06T00:05:16.846Z,15.68
2019-05-06T00:07:56.162Z,15.53
2019-05-06T00:10:45.763Z,15.43
2019-05-06T00:13:24.762Z,15.48
2019-05-06T00:16:04.288Z,14.55
2019-05-06T00:18:47.260Z,15.54
2019-05-06T00:21:25.443Z,15.70
2019-05-06T00:23:59.430Z,15.68
2019-05-06T00:26:58.462Z,15.66
2019-05-06T00:29:41.156Z,15.52
2019-05-06T00:32:19.011Z,15.39
2019-05-06T00:35:04.622Z,15.43
2019-05-06T00:37:53.973Z,15.46
2019-05-06T00:40:34.107Z,15.47
2019-05-06T00:43:30.503Z,15.49
2019-05-06T00:46:08.242Z,15.41
2019-05-06T00:48:54.686Z,15.31
2019-05-06T00:51:39.925Z,15.43
2019-05-06T00:54:27.479Z,15.39
2019-05-06T00:57:04.369Z,15.48
2019-05-06T00:59:40.063Z,15.44
2019-05-06T01:02:30.986Z,15.79
2019-05-06T01:05:13.897Z,15.98
2019-05-06T01:07:55.297Z,16.01
2019-05-06T01:10:38.523Z,15.97
2019-05-06T01:13:47.535Z,16.05
2019-05-06T01:16:36.898Z,16.15
2019-05-06T01:19:11.087Z,16.41
2019-05-06T01:21:49.324Z,16.43
2019-05-06T01:24:28.137Z,16.37
2019-05-06T01:27:07.025Z,16.45
2019-05-06T01:29:45.886Z,16.18
2019-05-06T01:32:24.530Z,15.92
2019-05-06T01:34:59.192Z,15.64
2019-05-06T01:37:34.773Z,15.47
2019-05-06T01:40:15.916Z,15.07
2019-05-06T01:42:56.485Z,14.70
2019-05-06T01:46:04.580Z,14.94
2019-05-06T01:48:53.465Z,14.94
2019-05-06T01:51:35.193Z,14.96
2019-05-06T01:54:14.226Z,14.94
2019-05-06T01:56:50.742Z,15.00
2019-05-06T01:59:25.663Z,15.06
2019-05-06T02:02:04.187Z,15.14
2019-05-06T02:04:39.900Z,15.09
2019-05-06T02:07:14.628Z,14.99
2019-05-06T02:09:50.923Z,15.02
2019-05-06T02:12:30.396Z,15.09
2019-05-06T02:15:14.473Z,15.02
2019-05-06T02:17:50.716Z,15.20
2019-05-06T02:20:34.013Z,15.42
2019-05-06T02:23:16.857Z,15.15
2019-05-06T02:25:55.660Z,15.03
2019-05-06T02:28:30.270Z,14.98
2019-05-06T02:31:28.926Z,14.97
2019-05-06T02:34:30.079Z,15.07
2019-05-06T02:37:25.405Z,15.07
2019-05-06T02:40:06.969Z,15.08
2019-05-06T02:42:44.920Z,13.99
2019-05-06T02:45:18.250Z,15.11
2019-05-06T02:48:04.522Z,15.04
2019-05-06T02:50:54.919Z,14.93
2019-05-06T02:53:33.448Z,14.99
2019-05-06T02:56:13.639Z,14.95
2019-05-06T02:58:53.771Z,14.89
2019-05-06T03:01:27.506Z,15.02
2019-05-06T03:04:04.049Z,15.04
2019-05-06T03:06:38.886Z,14.70
2019-05-06T03:09:13.528Z,14.70
2019-05-06T03:11:44.135Z,14.91
2019-05-06T03:14:16.697Z,14.71
2019-05-06T03:17:03.288Z,14.74
2019-05-06T03:19:39.323Z,15.02
2019-05-06T03:22:34.541Z,15.01
2019-05-06T03:25:13.463Z,15.03
2019-05-06T03:27:47.119Z,15.10
2019-05-06T03:30:25.358Z,15.19
2019-05-06T03:33:31.929Z,15.12
2019-05-06T03:35:50.491Z,15.09
2019-05-06T03:38:13.947Z,15.28
2019-05-06T03:40:53.474Z,15.32
2019-05-06T03:43:27.446Z,15.39
2019-05-06T03:46:23.241Z,14.41
2019-05-06T03:49:03.744Z,15.33
2019-05-06T03:51:56.044Z,15.65
2019-05-06T03:54:37.661Z,15.76
2019-05-06T03:57:26.439Z,15.72
2019-05-06T04:00:05.343Z,15.71
2019-05-06T04:02:44.996Z,15.79
2019-05-06T04:05:15.145Z,15.95
2019-05-06T04:08:20.263Z,15.98
2019-05-06T04:11:09.153Z,16.37
2019-05-06T04:14:18.110Z,16.33
2019-05-06T04:17:17.436Z,16.33
2019-05-06T04:20:38.661Z,16.31
2019-05-06T04:24:13.345Z,16.29
2019-05-06T04:27:13.853Z,16.33
2019-05-06T04:30:17.441Z,16.14
2019-05-06T04:33:23.656Z,15.33
2019-05-06T04:36:09.783Z,16.04
2019-05-06T04:42:39.802Z,16.44
2019-05-06T04:45:55.224Z,16.29
2019-05-06T04:48:54.651Z,16.41
2019-05-06T04:51:48.598Z,16.56
2019-05-06T04:55:15.418Z,16.83
2019-05-06T04:58:13.451Z,16.81
2019-05-06T05:01:03.975Z,16.89
2019-05-06T05:03:33.677Z,16.86
2019-05-06T05:06:14.368Z,16.87
2019-05-06T05:08:48.662Z,17.03
2019-05-06T05:11:42.540Z,17.03
2019-05-06T05:14:29.096Z,16.96
2019-05-06T05:17:10.379Z,16.53
2019-05-06T05:19:45.725Z,15.72
2019-05-06T05:22:21.926Z,16.80
2019-05-06T05:24:53.380Z,16.92
2019-05-06T05:27:26.963Z,16.73
2019-05-06T05:30:02.070Z,17.05
2019-05-06T05:32:35.239Z,16.96
2019-05-06T05:35:10.028Z,17.30
2019-05-06T05:37:42.016Z,17.02
2019-05-06T05:40:15.819Z,17.26
2019-05-06T05:43:11.710Z,17.78
2019-05-06T05:45:45.315Z,17.82
2019-05-06T05:48:34.189Z,17.51
2019-05-06T05:51:08.843Z,17.55
2019-05-06T05:53:42.547Z,17.62
2019-05-06T05:56:14.915Z,17.91
2019-05-06T05:58:50.085Z,17.99
2019-05-06T06:01:23.316Z,18.25
2019-05-06T06:03:58.891Z,18.32
2019-05-06T06:06:33.187Z,17.77
2019-05-06T06:09:08.156Z,18.64
2019-05-06T06:11:53.231Z,17.97
2019-05-06T06:14:47.506Z,17.90
2019-05-06T06:17:39.608Z,18.11
2019-05-06T06:20:28.841Z,18.28
2019-05-06T06:23:06.281Z,18.21
2019-05-06T06:25:39.016Z,18.51
2019-05-06T06:28:11.955Z,19.06
2019-05-06T06:31:12.288Z,19.31
2019-05-06T06:33:47.027Z,18.69
2019-05-06T06:36:24.632Z,19.07
2019-05-06T06:39:12.516Z,19.10
2019-05-06T06:41:43.286Z,18.92
2019-05-06T06:44:18.046Z,18.78
2019-05-06T06:46:53.061Z,19.24
2019-05-06T06:49:25.873Z,19.28
2019-05-06T06:51:56.968Z,19.39
2019-05-06T06:54:29.133Z,19.78
2019-05-06T06:57:21.880Z,19.16
2019-05-06T06:59:58.104Z,19.12
2019-05-06T07:02:36.663Z,19.33
2019-05-06T07:05:28.481Z,19.87
2019-05-06T07:07:58.090Z,19.51
2019-05-06T07:10:46.171Z,19.85
2019-05-06T07:13:17.230Z,19.56
2019-05-06T07:15:46.948Z,19.72
2019-05-06T07:18:16.642Z,20.32
2019-05-06T07:21:07.196Z,20.38
2019-05-06T07:23:36.932Z,20.14
2019-05-06T07:26:06.636Z,20.34
2019-05-06T07:28:36.268Z,20.39
2019-05-06T07:31:18.818Z,20.31
2019-05-06T07:33:37.329Z,20.46
2019-05-06T07:36:07.065Z,20.78
2019-05-06T07:38:38.351Z,20.25
2019-05-06T07:41:16.161Z,20.25
2019-05-06T07:44:07.690Z,20.39
2019-05-06T07:46:44.078Z,20.07
2019-05-06T07:49:13.781Z,20.01
2019-05-06T07:51:43.380Z,19.87
2019-05-06T07:54:13.029Z,20.56
2019-05-06T08:00:30.095Z,20.51
2019-05-06T08:03:02.510Z,20.65
2019-05-06T08:05:32.650Z,20.94
2019-05-06T08:08:03.600Z,21.33
2019-05-06T08:10:33.798Z,21.38
2019-05-06T08:13:03.422Z,21.51
2019-05-06T08:15:33.143Z,21.43
2019-05-06T08:18:03.591Z,21.99
2019-05-06T08:20:39.492Z,22.24
2019-05-06T08:23:47.731Z,21.56
2019-05-06T08:26:18.064Z,21.59
2019-05-06T08:28:47.836Z,21.61
2019-05-06T08:31:19.148Z,21.40
2019-05-06T08:33:48.784Z,21.18
2019-05-06T08:36:42.462Z,21.25
2019-05-06T08:39:13.061Z,21.42
2019-05-06T08:41:42.688Z,21.29
2019-05-06T08:44:12.815Z,21.19
2019-05-06T08:46:43.129Z,21.16
2019-05-06T08:49:13.310Z,21.85
2019-05-06T08:51:49.154Z,21.34
2019-05-06T08:54:28.560Z,21.62
2019-05-06T08:56:58.177Z,21.85
2019-05-06T08:59:27.878Z,21.29
2019-05-06T09:01:59.075Z,21.49
2019-05-06T09:04:29.446Z,21.67
2019-05-06T09:06:59.970Z,21.36
2019-05-06T09:09:32.606Z,21.45
2019-05-06T09:12:04.754Z,21.66
2019-05-06T09:14:34.446Z,21.65
2019-05-06T09:17:04.822Z,21.89
2019-05-06T09:19:34.511Z,21.60
2019-05-06T09:22:04.171Z,21.78
2019-05-06T09:24:33.868Z,22.42
2019-05-06T09:27:28.356Z,22.01
2019-05-06T09:30:09.540Z,21.85
2019-05-06T09:32:42.893Z,21.93
2019-05-06T09:35:13.123Z,22.80
2019-05-06T09:37:43.107Z,23.03
2019-05-06T09:40:15.474Z,23.47
2019-05-06T09:42:46.977Z,22.99
2019-05-06T09:45:17.236Z,23.00
2019-05-06T09:47:55.374Z,22.20
2019-05-06T09:50:46.767Z,22.11
2019-05-06T09:53:23.169Z,21.74
2019-05-06T09:56:17.145Z,21.81
2019-05-06T09:58:54.772Z,22.07
2019-05-06T10:01:24.782Z,22.20
2019-05-06T10:03:54.666Z,22.98
2019-05-06T10:06:24.309Z,22.74
2019-05-06T10:08:54.224Z,22.71
2019-05-06T10:11:24.012Z,22.51
2019-05-06T10:13:54.230Z,22.56
2019-05-06T10:16:24.143Z,22.74
2019-05-06T10:18:53.955Z,23.35
2019-05-06T10:21:23.961Z,23.06
2019-05-06T10:23:54.254Z,23.84
2019-05-06T10:26:25.172Z,23.50
2019-05-06T10:29:22.241Z,23.63
2019-05-06T10:32:07.048Z,24.04
2019-05-06T10:34:36.921Z,24.24
2019-05-06T10:37:21.041Z,23.67
2019-05-06T10:39:59.164Z,23.47
2019-05-06T10:42:37.678Z,23.62
2019-05-06T10:45:29.530Z,23.58
2019-05-06T10:47:59.451Z,23.53
2019-05-06T10:50:32.625Z,23.41
2019-05-06T10:53:19.976Z,23.28
2019-05-06T10:55:53.566Z,23.50
2019-05-06T10:58:23.785Z,23.87
2019-05-06T11:01:13.203Z,24.23
2019-05-06T11:03:43.690Z,24.46
2019-05-06T11:06:14.473Z,24.83
2019-05-06T11:08:44.306Z,24.85
2019-05-06T11:11:20.215Z,24.85
2019-05-06T11:13:47.467Z,24.65
2019-05-06T11:16:18.209Z,25.02
2019-05-06T11:18:48.578Z,25.07
2019-05-06T11:21:19.263Z,25.36
2019-05-06T11:23:52.703Z,25.30
2019-05-06T11:26:24.488Z,25.47
2019-05-06T11:28:58.370Z,25.47
2019-05-06T11:31:47.548Z,25.34
2019-05-06T11:34:36.977Z,25.29
2019-05-06T11:37:25.683Z,25.51
2019-05-06T11:39:55.495Z,25.80
2019-05-06T11:42:32.438Z,26.01
2019-05-06T11:45:03.008Z,26.08
2019-05-06T11:47:33.007Z,26.17
2019-05-06T11:50:05.121Z,26.42
2019-05-06T11:52:34.993Z,26.49
2019-05-06T11:55:07.024Z,26.60
2019-05-06T11:57:38.981Z,26.93
2019-05-06T12:00:14.087Z,27.13
2019-05-06T12:02:47.974Z,25.74
2019-05-06T12:05:15.966Z,24.81
2019-05-06T12:08:00.948Z,23.73
2019-05-06T12:10:19.183Z,22.92
2019-05-06T12:12:49.149Z,22.81
2019-05-06T12:15:19.372Z,22.08
2019-05-06T12:17:49.444Z,22.33
2019-05-06T12:20:19.490Z,22.05
2019-05-06T12:22:52.836Z,22.32
2019-05-06T12:25:24.010Z,22.33
2019-05-06T12:27:54.528Z,22.55
2019-05-06T12:30:24.957Z,22.61
2019-05-06T12:33:14.277Z,22.87
2019-05-06T12:35:48.161Z,23.30
2019-05-06T12:38:30.871Z,23.74
2019-05-06T12:40:59.982Z,23.67
2019-05-06T12:43:55.301Z,23.06
2019-05-06T12:46:33.087Z,23.87
2019-05-06T12:49:03.150Z,24.30
2019-05-06T12:51:33.336Z,24.19
2019-05-06T12:54:03.780Z,24.50
2019-05-06T12:56:34.488Z,24.63
2019-05-06T12:59:04.460Z,24.53
2019-05-06T13:01:35.453Z,24.30
2019-05-06T13:04:06.353Z,24.48
2019-05-06T13:06:37.197Z,23.71
2019-05-06T13:09:08.675Z,24.64
2019-05-06T13:11:38.338Z,24.47
2019-05-06T13:14:08.175Z,24.50
2019-05-06T13:16:38.149Z,24.61
2019-05-06T13:19:08.921Z,24.68
2019-05-06T13:21:38.678Z,24.70
2019-05-06T13:24:08.796Z,24.76
2019-05-06T13:26:39.443Z,24.88
2019-05-06T13:29:18.870Z,24.44
2019-05-06T13:31:48.597Z,24.37
2019-05-06T13:34:19.957Z,24.10
2019-05-06T13:36:50.094Z,24.21
2019-05-06T13:39:23.491Z,23.98
2019-05-06T13:41:53.240Z,23.67
2019-05-06T13:44:23.939Z,22.65
2019-05-06T13:46:55.847Z,21.67
2019-05-06T13:49:53.168Z,20.96
2019-05-06T13:52:26.281Z,20.25
2019-05-06T13:57:24.613Z,20.06
2019-05-06T13:59:54.274Z,19.72
2019-05-06T14:02:53.174Z,19.33
2019-05-06T14:05:23.360Z,19.23
2019-05-06T14:07:53.123Z,19.17
2019-05-06T14:10:23.079Z,18.92
2019-05-06T14:12:53.380Z,18.78
2019-05-06T14:15:23.521Z,18.76
2019-05-06T14:17:53.538Z,18.74
2019-05-06T14:20:23.354Z,18.68
2019-05-06T14:22:53.471Z,18.75
2019-05-06T14:25:54.329Z,18.63
2019-05-06T14:28:46.020Z,18.39
2019-05-06T14:31:25.583Z,18.18
2019-05-06T14:33:53.993Z,17.88
2019-05-06T14:36:27.371Z,17.80
2019-05-06T14:38:55.840Z,17.51
2019-05-06T14:41:27.566Z,17.41
2019-05-06T14:43:57.337Z,17.32
2019-05-06T14:46:29.129Z,16.93
2019-05-06T14:49:04.074Z,17.02
2019-05-06T14:51:32.895Z,16.99
2019-05-06T14:54:02.894Z,16.87
2019-05-06T14:56:48.733Z,16.80
2019-05-06T14:59:18.598Z,16.91
2019-05-06T15:01:48.396Z,16.96
2019-05-06T15:04:19.105Z,17.13
2019-05-06T15:06:49.073Z,17.07
2019-05-06T15:09:19.709Z,17.20
2019-05-06T15:11:51.460Z,17.26
2019-05-06T15:14:22.785Z,17.58
2019-05-06T15:16:54.188Z,17.37
2019-05-06T15:19:25.360Z,17.35
2019-05-06T15:21:55.226Z,17.23
2019-05-06T15:24:25.359Z,17.49
2019-05-06T15:26:55.178Z,17.53
2019-05-06T15:29:24.873Z,17.74
2019-05-06T15:32:02.725Z,17.93
2019-05-06T15:34:57.394Z,17.98
2019-05-06T15:37:42.296Z,17.94
2019-05-06T15:40:13.200Z,17.87
2019-05-06T15:42:42.940Z,17.76
2019-05-06T15:45:13.228Z,18.00
2019-05-06T15:47:43.798Z,17.88
2019-05-06T15:50:15.494Z,18.07
2019-05-06T15:52:45.355Z,18.09
2019-05-06T15:55:15.269Z,18.25
2019-05-06T15:57:45.408Z,18.13
2019-05-06T16:00:18.037Z,18.18
2019-05-06T16:02:48.798Z,18.02
2019-05-06T16:05:22.313Z,17.92
2019-05-06T16:07:52.941Z,17.98
2019-05-06T16:10:22.843Z,18.05
2019-05-06T16:12:53.549Z,18.08
2019-05-06T16:15:24.971Z,17.97
2019-05-06T16:17:54.773Z,17.83
2019-05-06T16:20:24.376Z,17.77
2019-05-06T16:23:03.341Z,17.72
2019-05-06T16:25:33.138Z,17.88
2019-05-06T16:28:03.186Z,17.42
2019-05-06T16:30:33.936Z,17.46
2019-05-06T16:33:04.184Z,17.44
2019-05-06T16:35:34.016Z,17.38
2019-05-06T16:38:03.633Z,17.34
2019-05-06T16:40:33.685Z,17.20
2019-05-06T16:43:03.379Z,17.48
2019-05-06T16:45:33.033Z,17.48
2019-05-06T16:48:03.616Z,17.44
2019-05-06T16:50:33.420Z,17.41
2019-05-06T16:53:03.253Z,17.39
2019-05-06T16:56:10.295Z,17.22
2019-05-06T16:58:47.075Z,17.28
2019-05-06T17:01:15.372Z,17.32
2019-05-06T17:03:53.566Z,17.04
2019-05-06T17:06:42.987Z,17.20
2019-05-06T17:09:20.926Z,17.30
2019-05-06T17:11:44.507Z,17.18
2019-05-06T17:14:14.261Z,17.37
2019-05-06T17:16:43.927Z,16.99
2019-05-06T17:19:13.609Z,16.94
2019-05-06T17:21:43.242Z,17.04
2019-05-06T17:24:13.236Z,16.79
2019-05-06T17:26:43.284Z,16.86
2019-05-06T17:29:24.864Z,16.74
2019-05-06T17:32:13.535Z,16.54
2019-05-06T17:34:46.936Z,16.44
2019-05-06T17:37:38.715Z,16.28
2019-05-06T17:40:14.016Z,16.35
2019-05-06T17:42:44.047Z,16.55
2019-05-06T17:45:33.680Z,16.58
2019-05-06T17:48:27.725Z,16.50
2019-05-06T17:51:13.927Z,16.46
2019-05-06T17:53:46.609Z,16.32
2019-05-06T17:56:16.311Z,16.38
2019-05-06T17:58:46.244Z,16.45
2019-05-06T18:01:19.664Z,16.66
2019-05-06T18:03:49.260Z,16.47
2019-05-06T18:06:19.091Z,16.47
2019-05-06T18:08:49.049Z,16.56
2019-05-06T18:11:19.301Z,16.56
2019-05-06T18:13:51.983Z,16.55
2019-05-06T18:16:22.267Z,16.58
2019-05-06T18:18:52.473Z,16.43
2019-05-06T18:21:23.005Z,16.51
2019-05-06T18:23:53.134Z,16.56
2019-05-06T18:26:23.126Z,16.45
2019-05-06T18:28:53.103Z,16.44
2019-05-06T18:31:22.947Z,16.34
2019-05-06T18:33:52.901Z,16.21
2019-05-06T18:36:22.916Z,16.13
2019-05-06T18:38:53.535Z,15.51
2019-05-06T18:41:23.741Z,15.45
2019-05-06T18:43:55.053Z,15.12
2019-05-06T18:46:24.902Z,14.79
2019-05-06T18:48:54.708Z,14.86
2019-05-06T18:51:25.705Z,14.52
2019-05-06T18:53:55.884Z,14.47
2019-05-06T18:56:26.236Z,14.33
2019-05-06T18:58:56.120Z,14.37
2019-05-06T19:01:26.394Z,14.42
2019-05-06T19:04:03.402Z,14.58
2019-05-06T19:06:33.139Z,14.23
2019-05-06T19:09:18.780Z,14.15
2019-05-06T19:11:48.737Z,13.89
2019-05-06T19:14:18.850Z,13.87
2019-05-06T19:16:52.321Z,13.81
2019-05-06T19:19:20.383Z,13.65
2019-05-06T19:21:52.287Z,13.79
2019-05-06T19:24:22.628Z,13.71
2019-05-06T19:26:53.196Z,13.63
2019-05-06T19:29:23.666Z,13.65
2019-05-06T19:31:55.346Z,13.63
2019-05-06T19:34:25.370Z,13.45
2019-05-06T19:36:55.602Z,13.45
2019-05-06T19:39:25.378Z,13.32
2019-05-06T19:41:55.702Z,13.37
2019-05-06T19:44:25.817Z,13.28
2019-05-06T19:46:55.944Z,13.28
2019-05-06T19:49:25.674Z,13.29
2019-05-06T19:51:55.333Z,13.17
2019-05-06T19:54:24.999Z,13.10
2019-05-06T19:56:54.687Z,13.09
2019-05-06T19:59:24.334Z,13.06
2019-05-06T20:01:54.084Z,13.13
2019-05-06T20:04:24.311Z,13.26
2019-05-06T20:07:03.379Z,13.12
2019-05-06T20:09:52.643Z,12.98
2019-05-06T20:12:32.869Z,13.21
2019-05-06T20:15:20.229Z,12.96
2019-05-06T20:17:51.957Z,12.79
2019-05-06T20:20:22.874Z,12.18
2019-05-06T20:22:52.588Z,12.72
2019-05-06T20:25:22.203Z,12.69
2019-05-06T20:27:52.658Z,12.85
2019-05-06T20:30:23.388Z,12.53
2019-05-06T20:32:53.582Z,12.32
2019-05-06T20:35:23.301Z,12.99
2019-05-06T20:37:53.524Z,12.81
2019-05-06T20:40:23.540Z,12.73
2019-05-06T20:42:53.421Z,12.90
2019-05-06T20:45:24.184Z,12.91
2019-05-06T20:47:54.771Z,12.97
2019-05-06T20:50:24.681Z,12.80
2019-05-06T20:52:55.700Z,12.90
2019-05-06T20:55:25.956Z,12.89
2019-05-06T20:57:57.019Z,12.71
2019-05-06T21:00:27.004Z,12.62
2019-05-06T21:02:56.810Z,12.60
2019-05-06T21:05:29.514Z,12.42
2019-05-06T21:08:02.212Z,12.42
2019-05-06T21:10:33.067Z,12.63
2019-05-06T21:13:04.032Z,12.72
2019-05-06T21:15:34.407Z,12.76
2019-05-06T21:18:06.764Z,12.61
2019-05-06T21:20:37.494Z,12.58
2019-05-06T21:23:09.354Z,12.57
2019-05-06T21:25:42.912Z,12.55
2019-05-06T21:28:13.605Z,12.76
2019-05-06T21:30:44.409Z,12.78
2019-05-06T21:33:16.409Z,12.81
2019-05-06T21:35:48.750Z,12.77
2019-05-06T21:38:22.685Z,12.90
2019-05-06T21:40:54.311Z,12.94
2019-05-06T21:43:25.372Z,12.96
2019-05-06T21:45:57.622Z,12.95
2019-05-06T21:48:27.491Z,12.91
2019-05-06T21:51:00.580Z,12.92
2019-05-06T21:53:32.648Z,13.03
2019-05-06T21:56:04.355Z,13.08
2019-05-06T21:58:35.178Z,13.11
2019-05-06T22:01:06.761Z,13.18
2019-05-06T22:03:37.248Z,13.17
2019-05-06T22:06:07.257Z,13.24
2019-05-06T22:08:37.091Z,13.25
2019-05-06T22:11:07.297Z,13.46
2019-05-06T22:13:38.738Z,13.24
2019-05-06T22:16:08.934Z,13.33
2019-05-06T22:18:39.500Z,13.31
2019-05-06T22:21:18.805Z,13.49
2019-05-06T22:23:53.167Z,13.60
2019-05-06T22:26:24.671Z,13.58
2019-05-06T22:28:54.959Z,13.64
2019-05-06T22:31:25.637Z,13.83
2019-05-06T22:33:56.272Z,13.73
2019-05-06T22:36:25.968Z,13.74
2019-05-06T22:38:55.842Z,13.59
2019-05-06T22:41:26.692Z,13.54
2019-05-06T22:43:57.200Z,13.49
2019-05-06T22:46:27.618Z,13.31
2019-05-06T22:48:58.729Z,13.14
2019-05-06T22:51:28.475Z,13.60
2019-05-06T22:53:58.732Z,13.42
2019-05-06T22:56:28.392Z,13.27
2019-05-06T22:58:58.070Z,13.10
2019-05-06T23:01:54.595Z,13.00
2019-05-06T23:04:26.580Z,12.97
2019-05-06T23:06:57.077Z,13.19
2019-05-06T23:09:26.758Z,13.03
2019-05-06T23:11:57.451Z,12.95
2019-05-06T23:14:31.748Z,12.95
2019-05-06T23:17:02.913Z,13.13
2019-05-06T23:19:33.271Z,13.14
2019-05-06T23:22:04.266Z,12.98
2019-05-06T23:24:34.261Z,12.87
2019-05-06T23:27:03.910Z,12.83
2019-05-06T23:29:35.688Z,12.88
2019-05-06T23:32:06.222Z,12.88
2019-05-06T23:34:36.933Z,12.79
2019-05-06T23:37:23.613Z,12.90
2019-05-06T23:40:35.305Z,12.87
2019-05-06T23:43:42.737Z,12.68
2019-05-06T23:46:48.506Z,12.54
2019-05-06T23:49:53.729Z,12.68
2019-05-06T23:52:59.223Z,12.61
2019-05-06T23:56:04.496Z,12.61
2019-05-06T23:58:34.225Z,12.53
